createdAt,value
2018-07-23T00:01:17.312Z,0.00
2018-07-23T00:02:17.306Z,0.00
2018-07-23T00:04:10.260Z,0.00
2018-07-23T00:05:10.254Z,0.00
2018-07-23T00:07:03.189Z,0.00
2018-07-23T00:08:03.201Z,0.00
2018-07-23T00:09:56.153Z,0.00
2018-07-23T00:10:56.141Z,0.00
2018-07-23T00:12:49.076Z,0.00
2018-07-23T00:13:49.090Z,0.00
2018-07-23T00:15:42.036Z,0.00
2018-07-23T00:16:42.032Z,0.00
2018-07-23T00:18:34.964Z,0.00
2018-07-23T00:19:34.978Z,0.00
2018-07-23T00:21:27.925Z,0.00
2018-07-23T00:22:27.923Z,0.00
2018-07-23T00:24:20.872Z,0.00
2018-07-23T00:25:20.869Z,0.00
2018-07-23T00:27:13.798Z,0.00
2018-07-23T00:28:13.817Z,0.00
2018-07-23T00:30:06.770Z,0.00
2018-07-23T00:31:06.764Z,0.00
2018-07-23T00:32:59.690Z,0.00
2018-07-23T00:33:59.706Z,0.00
2018-07-23T00:35:52.655Z,0.00
2018-07-23T00:36:52.648Z,0.00
2018-07-23T00:38:45.579Z,0.00
2018-07-23T00:39:45.597Z,0.00
2018-07-23T00:41:38.542Z,0.00
2018-07-23T00:42:38.541Z,0.00
2018-07-23T00:44:31.501Z,0.00
2018-07-23T00:45:31.495Z,0.00
2018-07-23T00:47:24.422Z,0.00
2018-07-23T00:48:24.439Z,0.00
2018-07-23T00:50:17.391Z,0.00
2018-07-23T00:51:17.386Z,0.00
2018-07-23T00:53:10.316Z,0.00
2018-07-23T00:54:10.332Z,0.00
2018-07-23T00:56:03.289Z,0.00
2018-07-23T00:57:03.274Z,0.00
2018-07-23T00:58:56.209Z,0.00
2018-07-23T00:59:56.223Z,0.00
2018-07-23T01:01:49.175Z,0.00
2018-07-23T01:02:49.169Z,0.00
2018-07-23T01:04:42.118Z,0.00
2018-07-23T01:05:42.120Z,0.00
2018-07-23T01:07:35.062Z,0.00
2018-07-23T01:08:35.065Z,0.00
2018-07-23T01:10:28.018Z,0.00
2018-07-23T01:11:28.014Z,0.00
2018-07-23T01:13:20.947Z,0.00
2018-07-23T01:14:20.955Z,0.00
2018-07-23T01:16:13.911Z,0.00
2018-07-23T01:17:13.905Z,0.00
2018-07-23T01:19:06.837Z,0.00
2018-07-23T01:20:06.851Z,0.00
2018-07-23T01:21:59.809Z,0.00
2018-07-23T01:22:59.803Z,0.00
2018-07-23T01:24:52.754Z,0.00
2018-07-23T01:25:52.754Z,0.00
2018-07-23T01:27:45.678Z,0.00
2018-07-23T01:28:45.692Z,0.00
2018-07-23T01:30:38.640Z,0.00
2018-07-23T01:31:38.637Z,0.00
2018-07-23T01:33:31.562Z,0.00
2018-07-23T01:34:31.578Z,0.00
2018-07-23T01:36:24.529Z,0.00
2018-07-23T01:37:24.524Z,0.00
2018-07-23T01:39:17.461Z,0.00
2018-07-23T01:40:17.473Z,0.00
2018-07-23T01:42:10.425Z,0.00
2018-07-23T01:43:10.420Z,0.00
2018-07-23T01:45:03.366Z,0.00
2018-07-23T01:46:03.358Z,0.00
2018-07-23T01:47:56.289Z,0.00
2018-07-23T01:48:56.303Z,0.00
2018-07-23T01:50:49.254Z,0.00
2018-07-23T01:51:49.252Z,0.00
2018-07-23T01:53:42.180Z,0.00
2018-07-23T01:54:42.195Z,0.00
2018-07-23T02:23:27.211Z,0.00
2018-07-23T02:24:27.197Z,0.00
2018-07-23T02:26:20.137Z,0.00
2018-07-23T02:27:20.125Z,0.00
2018-07-23T02:29:13.040Z,0.00
2018-07-23T02:30:13.053Z,0.00
2018-07-23T02:32:06.005Z,0.00
2018-07-23T02:33:05.990Z,0.00
2018-07-23T02:34:58.906Z,0.00
2018-07-23T02:35:58.928Z,0.00
2018-07-23T02:37:51.865Z,0.00
2018-07-23T02:38:51.857Z,0.00
2018-07-23T02:40:44.802Z,0.00
2018-07-23T02:41:44.794Z,0.00
2018-07-23T02:43:37.720Z,0.00
2018-07-23T02:44:37.738Z,0.00
2018-07-23T02:46:30.679Z,0.00
2018-07-23T02:47:30.669Z,0.00
2018-07-23T02:49:23.596Z,0.00
2018-07-23T02:50:23.611Z,0.00
2018-07-23T02:52:16.553Z,0.00
2018-07-23T02:53:16.554Z,0.00
2018-07-23T02:55:09.471Z,0.00
2018-07-23T02:56:09.488Z,0.00
2018-07-23T02:58:02.430Z,0.00
2018-07-23T02:59:02.427Z,0.00
2018-07-23T03:00:55.373Z,0.00
2018-07-23T03:01:55.367Z,0.00
2018-07-23T03:03:48.290Z,0.00
2018-07-23T03:04:48.306Z,0.00
2018-07-23T03:06:41.251Z,0.00
2018-07-23T03:07:41.248Z,0.00
2018-07-23T03:09:34.177Z,0.00
2018-07-23T03:10:34.192Z,0.00
2018-07-23T03:12:27.137Z,0.00
2018-07-23T03:13:27.135Z,0.00
2018-07-23T03:15:20.063Z,4.00
2018-07-23T03:16:20.079Z,4.00
2018-07-23T03:18:13.027Z,0.00
2018-07-23T03:19:13.015Z,4.00
2018-07-23T03:21:05.966Z,4.00
2018-07-23T03:22:05.959Z,4.00
2018-07-23T03:23:58.898Z,8.00
2018-07-23T03:24:58.912Z,8.00
2018-07-23T03:26:51.860Z,8.00
2018-07-23T03:27:51.850Z,12.00
2018-07-23T03:29:44.779Z,12.00
2018-07-23T03:30:44.791Z,12.00
2018-07-23T03:32:37.750Z,16.00
2018-07-23T03:33:37.745Z,20.00
2018-07-23T03:35:30.681Z,16.00
2018-07-23T03:36:30.695Z,20.00
2018-07-23T03:38:23.642Z,20.00
2018-07-23T03:39:23.639Z,20.00
2018-07-23T03:41:16.587Z,24.00
2018-07-23T03:42:16.582Z,28.00
2018-07-23T03:44:09.506Z,28.00
2018-07-23T03:45:09.524Z,32.00
2018-07-23T03:47:02.480Z,36.00
2018-07-23T03:48:02.471Z,40.00
2018-07-23T03:49:55.396Z,44.00
2018-07-23T03:50:55.409Z,48.00
2018-07-23T03:52:48.358Z,52.00
2018-07-23T03:53:48.351Z,56.00
2018-07-23T03:55:41.279Z,68.00
2018-07-23T03:56:41.294Z,72.00
2018-07-23T03:58:34.243Z,80.00
2018-07-23T03:59:34.242Z,88.00
2018-07-23T04:01:27.198Z,104.00
2018-07-23T04:02:27.195Z,116.00
2018-07-23T04:04:20.122Z,132.00
2018-07-23T04:05:20.137Z,140.00
2018-07-23T04:07:13.084Z,152.00
2018-07-23T04:08:13.083Z,160.00
2018-07-23T04:10:06.096Z,180.00
2018-07-23T04:11:06.027Z,192.00
2018-07-23T04:12:58.978Z,212.00
2018-07-23T04:13:58.969Z,232.00
2018-07-23T04:15:51.901Z,280.00
2018-07-23T04:16:51.915Z,324.00
2018-07-23T04:18:44.869Z,424.00
2018-07-23T04:19:44.866Z,404.00
2018-07-23T04:21:37.819Z,468.00
2018-07-23T04:22:37.814Z,536.00
2018-07-23T04:24:30.741Z,572.00
2018-07-23T04:25:30.757Z,596.00
2018-07-23T04:27:23.703Z,604.00
2018-07-23T04:28:23.701Z,600.00
2018-07-23T04:30:16.627Z,564.00
2018-07-23T04:31:16.647Z,520.00
2018-07-23T04:33:09.594Z,444.00
2018-07-23T04:34:09.590Z,428.00
2018-07-23T04:36:02.526Z,436.00
2018-07-23T04:37:02.539Z,440.00
2018-07-23T04:38:55.489Z,484.00
2018-07-23T04:39:55.485Z,504.00
2018-07-23T04:41:48.438Z,560.00
2018-07-23T04:42:48.430Z,612.00
2018-07-23T04:44:41.361Z,700.00
2018-07-23T04:45:41.373Z,736.00
2018-07-23T04:47:34.323Z,708.00
2018-07-23T04:48:34.319Z,668.00
2018-07-23T04:50:27.252Z,628.00
2018-07-23T04:51:27.274Z,632.00
2018-07-23T04:53:20.216Z,640.00
2018-07-23T04:54:20.208Z,640.00
2018-07-23T04:56:13.144Z,704.00
2018-07-23T04:57:13.157Z,772.00
2018-07-23T04:59:06.108Z,920.00
2018-07-23T05:00:06.103Z,960.00
2018-07-23T05:01:59.062Z,1028.00
2018-07-23T05:02:59.052Z,1104.00
2018-07-23T05:04:51.978Z,1200.00
2018-07-23T05:05:51.996Z,1264.00
2018-07-23T05:07:44.943Z,1240.00
2018-07-23T05:08:44.983Z,1232.00
2018-07-23T05:10:37.886Z,1224.00
2018-07-23T05:11:37.895Z,1196.00
2018-07-23T05:13:30.842Z,1204.00
2018-07-23T05:14:30.841Z,1244.00
2018-07-23T05:16:23.771Z,1244.00
2018-07-23T05:17:23.786Z,1212.00
2018-07-23T05:19:16.739Z,1172.00
2018-07-23T05:20:16.737Z,1136.00
2018-07-23T05:22:09.658Z,1144.00
2018-07-23T05:23:09.676Z,1252.00
2018-07-23T05:25:02.633Z,1532.00
2018-07-23T05:26:02.633Z,1688.00
2018-07-23T05:27:55.577Z,1904.00
2018-07-23T05:28:55.575Z,2084.00
2018-07-23T05:30:48.506Z,2292.00
2018-07-23T05:31:48.631Z,2368.00
2018-07-23T05:33:41.473Z,2604.00
2018-07-23T05:34:41.470Z,2684.00
2018-07-23T05:36:34.401Z,2884.00
2018-07-23T05:37:34.418Z,2936.00
2018-07-23T05:39:27.366Z,3548.00
2018-07-23T05:40:27.363Z,3776.00
2018-07-23T05:42:20.291Z,3896.00
2018-07-23T05:43:20.311Z,4000.00
2018-07-23T05:45:13.259Z,15520.00
2018-07-23T05:46:13.258Z,24512.00
2018-07-23T05:48:06.206Z,16992.00
2018-07-23T05:49:06.201Z,3368.00
2018-07-23T05:50:59.134Z,2732.00
2018-07-23T05:51:59.156Z,2588.00
2018-07-23T05:53:52.119Z,2016.00
2018-07-23T05:54:52.120Z,1908.00
2018-07-23T05:56:45.050Z,1760.00
2018-07-23T05:57:45.150Z,1792.00
2018-07-23T05:59:38.023Z,1860.00
2018-07-23T06:00:38.020Z,1944.00
2018-07-23T06:02:30.964Z,1956.00
2018-07-23T06:03:30.983Z,1944.00
2018-07-23T06:05:23.928Z,2120.00
2018-07-23T06:06:23.993Z,2152.00
2018-07-23T06:08:16.880Z,2160.00
2018-07-23T06:09:16.878Z,2072.00
2018-07-23T06:11:09.816Z,2044.00
2018-07-23T06:12:09.827Z,2000.00
2018-07-23T06:14:02.780Z,1956.00
2018-07-23T06:15:02.784Z,1936.00
2018-07-23T06:16:55.719Z,1892.00
2018-07-23T06:17:55.736Z,1824.00
2018-07-23T06:19:48.686Z,1784.00
2018-07-23T06:20:48.684Z,1792.00
2018-07-23T06:22:41.618Z,1848.00
2018-07-23T06:23:41.634Z,1880.00
2018-07-23T06:25:34.590Z,1988.00
2018-07-23T06:26:34.583Z,2016.00
2018-07-23T06:28:27.538Z,2100.00
2018-07-23T06:29:27.538Z,2068.00
2018-07-23T06:31:20.475Z,2040.00
2018-07-23T06:32:20.550Z,2056.00
2018-07-23T06:34:13.443Z,2084.00
2018-07-23T06:35:13.443Z,2092.00
2018-07-23T06:37:06.376Z,2076.00
2018-07-23T06:38:06.404Z,2080.00
2018-07-23T06:39:59.344Z,2072.00
2018-07-23T06:40:59.349Z,2100.00
2018-07-23T06:42:52.282Z,2128.00
2018-07-23T06:43:52.297Z,2140.00
2018-07-23T06:45:45.253Z,2112.00
2018-07-23T06:46:45.315Z,2068.00
2018-07-23T06:48:38.207Z,2108.00
2018-07-23T06:49:38.204Z,2136.00
2018-07-23T06:51:31.136Z,2176.00
2018-07-23T06:52:31.151Z,2100.00
2018-07-23T06:54:24.104Z,2052.00
2018-07-23T06:55:24.103Z,2140.00
2018-07-23T06:57:17.114Z,2120.00
2018-07-23T06:58:17.053Z,2112.00
2018-07-23T07:00:10.014Z,2072.00
2018-07-23T07:01:10.009Z,2076.00
2018-07-23T07:03:02.946Z,2152.00
2018-07-23T07:04:02.969Z,2116.00
2018-07-23T07:05:55.916Z,2132.00
2018-07-23T07:06:55.913Z,2156.00
2018-07-23T07:08:48.878Z,2168.00
2018-07-23T07:09:48.872Z,2176.00
2018-07-23T07:11:41.802Z,2212.00
2018-07-23T07:12:41.821Z,2184.00
2018-07-23T07:14:35.270Z,2248.00
2018-07-23T07:15:35.270Z,2228.00
2018-07-23T07:17:28.207Z,2220.00
2018-07-23T07:18:28.230Z,2272.00
2018-07-23T07:20:21.180Z,2396.00
2018-07-23T07:21:21.180Z,2480.00
2018-07-23T07:23:14.115Z,2588.00
2018-07-23T07:24:14.132Z,2608.00
2018-07-23T07:26:07.089Z,2568.00
2018-07-23T07:27:07.079Z,2508.00
2018-07-23T07:29:00.040Z,2552.00
2018-07-23T07:30:00.040Z,2576.00
2018-07-23T07:31:52.973Z,2632.00
2018-07-23T07:32:52.987Z,2696.00
2018-07-23T07:34:45.979Z,2836.00
2018-07-23T07:35:45.945Z,2872.00
2018-07-23T07:37:38.884Z,3160.00
2018-07-23T07:38:38.893Z,3364.00
2018-07-23T07:40:31.853Z,3496.00
2018-07-23T07:41:31.852Z,3548.00
2018-07-23T07:43:24.791Z,3784.00
2018-07-23T07:44:24.802Z,3856.00
2018-07-23T07:46:17.758Z,3844.00
2018-07-23T07:47:17.757Z,3780.00
2018-07-23T07:49:10.714Z,3884.00
2018-07-23T07:50:10.714Z,4000.00
2018-07-23T07:52:03.646Z,4160.00
2018-07-23T07:53:03.666Z,4280.00
2018-07-23T07:54:56.626Z,4764.00
2018-07-23T07:55:56.627Z,4780.00
2018-07-23T07:57:49.561Z,5012.00
2018-07-23T07:58:49.621Z,5176.00
2018-07-23T08:00:42.535Z,8300.00
2018-07-23T08:01:42.532Z,5648.00
2018-07-23T08:03:35.469Z,5784.00
2018-07-23T08:04:35.489Z,5912.00
2018-07-23T08:06:28.444Z,6732.00
2018-07-23T08:07:28.445Z,7608.00
2018-07-23T08:09:21.402Z,7532.00
2018-07-23T08:10:21.403Z,7176.00
2018-07-23T08:12:14.340Z,8988.00
2018-07-23T08:13:14.357Z,8804.00
2018-07-23T08:15:07.315Z,8792.00
2018-07-23T08:16:07.313Z,6344.00
2018-07-23T08:18:00.257Z,5300.00
2018-07-23T08:19:00.272Z,5356.00
2018-07-23T08:20:53.241Z,5588.00
2018-07-23T08:21:53.244Z,5776.00
2018-07-23T08:23:46.183Z,6556.00
2018-07-23T08:24:46.199Z,6472.00
2018-07-23T08:26:39.158Z,6656.00
2018-07-23T08:27:39.158Z,6752.00
2018-07-23T08:29:32.117Z,7016.00
2018-07-23T08:30:32.119Z,7208.00
2018-07-23T08:32:25.063Z,6812.00
2018-07-23T08:33:25.079Z,6964.00
2018-07-23T08:35:18.031Z,6904.00
2018-07-23T08:36:18.038Z,7004.00
2018-07-23T08:38:10.971Z,7472.00
2018-07-23T08:39:10.990Z,7520.00
2018-07-23T08:41:03.949Z,7420.00
2018-07-23T08:42:03.955Z,7264.00
2018-07-23T08:43:56.891Z,7108.00
2018-07-23T08:44:56.946Z,7184.00
2018-07-23T08:46:49.874Z,7584.00
2018-07-23T08:47:49.875Z,7632.00
2018-07-23T08:49:42.832Z,7492.00
2018-07-23T08:50:42.839Z,7380.00
2018-07-23T08:52:35.777Z,7176.00
2018-07-23T08:53:35.800Z,7012.00
2018-07-23T08:55:28.757Z,6756.00
2018-07-23T08:56:28.761Z,6848.00
2018-07-23T08:58:21.705Z,6976.00
2018-07-23T08:59:21.720Z,6972.00
2018-07-23T09:01:14.679Z,6820.00
2018-07-23T09:02:14.695Z,6692.00
2018-07-23T09:04:07.621Z,6584.00
2018-07-23T09:05:07.646Z,6216.00
2018-07-23T09:07:00.605Z,6236.00
2018-07-23T09:08:00.605Z,6156.00
2018-07-23T09:09:53.569Z,5840.00
2018-07-23T09:10:53.570Z,5528.00
2018-07-23T09:12:46.515Z,5208.00
2018-07-23T09:13:46.538Z,4856.00
2018-07-23T09:15:39.505Z,4596.00
2018-07-23T09:16:39.500Z,4448.00
2018-07-23T09:18:32.448Z,4444.00
2018-07-23T09:19:32.467Z,4524.00
2018-07-23T09:21:25.426Z,4240.00
2018-07-23T09:22:25.427Z,4448.00
2018-07-23T09:24:18.365Z,4276.00
2018-07-23T09:25:18.390Z,4320.00
2018-07-23T09:27:11.350Z,3936.00
2018-07-23T09:28:11.351Z,3792.00
2018-07-23T09:30:04.309Z,3632.00
2018-07-23T09:31:04.352Z,3776.00
2018-07-23T09:32:57.250Z,3756.00
2018-07-23T09:33:57.267Z,3948.00
2018-07-23T09:35:50.233Z,4144.00
2018-07-23T09:36:50.233Z,4152.00
2018-07-23T09:38:43.173Z,4260.00
2018-07-23T09:39:43.187Z,4312.00
2018-07-23T09:41:36.148Z,4392.00
2018-07-23T09:42:36.150Z,4304.00
2018-07-23T09:44:29.086Z,4000.00
2018-07-23T09:45:29.146Z,3944.00
2018-07-23T09:47:22.074Z,3872.00
2018-07-23T09:48:22.081Z,3868.00
2018-07-23T09:50:15.032Z,3832.00
2018-07-23T09:51:15.033Z,3824.00
2018-07-23T09:53:07.975Z,4144.00
2018-07-23T09:54:07.998Z,4344.00
2018-07-23T09:56:00.959Z,4336.00
2018-07-23T09:57:00.959Z,4300.00
2018-07-23T09:58:53.910Z,4416.00
2018-07-23T09:59:53.924Z,4428.00
2018-07-23T10:01:46.886Z,4224.00
2018-07-23T10:02:46.889Z,4068.00
2018-07-23T10:04:39.831Z,3840.00
2018-07-23T10:05:39.858Z,3812.00
2018-07-23T10:07:32.811Z,3836.00
2018-07-23T10:08:32.808Z,3824.00
2018-07-23T10:10:25.770Z,3784.00
2018-07-23T10:11:25.770Z,3772.00
2018-07-23T10:13:18.706Z,3724.00
2018-07-23T10:14:18.731Z,3652.00
2018-07-23T10:16:11.696Z,3400.00
2018-07-23T10:17:11.695Z,3604.00
2018-07-23T10:19:04.633Z,3552.00
2018-07-23T10:20:04.657Z,3548.00
2018-07-23T10:21:57.619Z,3576.00
2018-07-23T10:22:57.621Z,3632.00
2018-07-23T10:24:50.564Z,3540.00
2018-07-23T10:25:50.588Z,3072.00
2018-07-23T10:27:43.552Z,3888.00
2018-07-23T10:28:43.549Z,3984.00
2018-07-23T10:30:36.506Z,3520.00
2018-07-23T10:31:36.510Z,4072.00
2018-07-23T10:33:29.450Z,3192.00
2018-07-23T10:34:29.471Z,3308.00
2018-07-23T10:36:22.432Z,4396.00
2018-07-23T10:37:22.433Z,4484.00
2018-07-23T10:39:15.378Z,4160.00
2018-07-23T10:40:15.398Z,4068.00
2018-07-23T10:42:08.357Z,4604.00
2018-07-23T10:43:08.361Z,3472.00
2018-07-23T10:45:01.308Z,3608.00
2018-07-23T10:46:01.330Z,4548.00
2018-07-23T10:47:54.288Z,4928.00
2018-07-23T10:48:54.291Z,5372.00
2018-07-23T10:50:47.254Z,5340.00
2018-07-23T10:51:47.254Z,5172.00
2018-07-23T10:53:40.202Z,4904.00
2018-07-23T10:54:40.222Z,4316.00
2018-07-23T10:56:33.180Z,4940.00
2018-07-23T10:57:33.182Z,4620.00
2018-07-23T10:59:26.127Z,4360.00
2018-07-23T11:00:26.148Z,4212.00
2018-07-23T11:02:19.104Z,4220.00
2018-07-23T11:03:19.111Z,4324.00
2018-07-23T11:05:12.050Z,5356.00
2018-07-23T11:06:12.075Z,5272.00
2018-07-23T11:08:05.036Z,4508.00
2018-07-23T11:09:05.038Z,4588.00
2018-07-23T11:10:57.998Z,4424.00
2018-07-23T11:11:57.998Z,4224.00
2018-07-23T11:13:50.937Z,4184.00
2018-07-23T11:14:50.957Z,4196.00
2018-07-23T11:16:43.923Z,4272.00
2018-07-23T11:17:43.922Z,5732.00
2018-07-23T11:19:36.866Z,4680.00
2018-07-23T11:20:36.885Z,4612.00
2018-07-23T11:22:29.847Z,4364.00
2018-07-23T11:23:29.849Z,4188.00
2018-07-23T11:25:38.977Z,4028.00
2018-07-23T11:26:22.857Z,4048.00
2018-07-23T11:28:15.769Z,4056.00
2018-07-23T11:29:15.771Z,4020.00
2018-07-23T11:31:08.730Z,4960.00
2018-07-23T11:32:08.817Z,3868.00
2018-07-23T11:34:01.673Z,3780.00
2018-07-23T11:35:01.693Z,4236.00
2018-07-23T11:36:54.653Z,3948.00
2018-07-23T11:37:54.656Z,4032.00
2018-07-23T11:39:47.598Z,4584.00
2018-07-23T11:40:47.618Z,4368.00
2018-07-23T11:42:40.583Z,3916.00
2018-07-23T11:43:40.580Z,4040.00
2018-07-23T11:45:33.520Z,5092.00
2018-07-23T11:46:33.543Z,5032.00
2018-07-23T11:48:26.505Z,4772.00
2018-07-23T11:49:26.507Z,4504.00
2018-07-23T11:51:19.467Z,3404.00
2018-07-23T11:52:19.469Z,3252.00
2018-07-23T11:54:12.410Z,4272.00
2018-07-23T11:55:12.429Z,4304.00
2018-07-23T11:57:05.445Z,4080.00
2018-07-23T11:58:05.401Z,4036.00
2018-07-23T11:59:58.342Z,3976.00
2018-07-23T12:00:58.366Z,3928.00
2018-07-23T12:02:51.335Z,3808.00
2018-07-23T12:03:51.336Z,3896.00
2018-07-23T12:05:44.280Z,3908.00
2018-07-23T12:06:44.303Z,3856.00
2018-07-23T12:08:37.258Z,3680.00
2018-07-23T12:09:37.266Z,3580.00
2018-07-23T12:11:30.262Z,2588.00
2018-07-23T12:12:30.268Z,3208.00
2018-07-23T12:14:23.299Z,3696.00
2018-07-23T12:15:23.325Z,3880.00
2018-07-23T12:17:16.303Z,3656.00
2018-07-23T12:18:16.287Z,3792.00
2018-07-23T12:20:09.232Z,4112.00
2018-07-23T12:21:09.256Z,3224.00
2018-07-23T12:23:02.219Z,3724.00
2018-07-23T12:24:02.225Z,4224.00
2018-07-23T12:25:55.206Z,4196.00
2018-07-23T12:26:55.192Z,4088.00
2018-07-23T12:28:48.144Z,4048.00
2018-07-23T12:29:48.149Z,4024.00
2018-07-23T12:31:41.111Z,4108.00
2018-07-23T12:32:41.117Z,4128.00
2018-07-23T12:34:34.054Z,4076.00
2018-07-23T12:35:34.078Z,4036.00
2018-07-23T12:37:27.041Z,3956.00
2018-07-23T12:38:27.038Z,3892.00
2018-07-23T12:40:19.979Z,4084.00
2018-07-23T12:41:20.005Z,4108.00
2018-07-23T12:43:12.962Z,4136.00
2018-07-23T12:44:12.966Z,4116.00
2018-07-23T12:46:05.909Z,3984.00
2018-07-23T12:47:05.982Z,3900.00
2018-07-23T12:48:58.890Z,3896.00
2018-07-23T12:49:58.894Z,3868.00
2018-07-23T12:51:51.855Z,3800.00
2018-07-23T12:52:51.857Z,4204.00
2018-07-23T12:54:44.801Z,4260.00
2018-07-23T12:55:44.822Z,4276.00
2018-07-23T12:57:37.787Z,4296.00
2018-07-23T12:58:37.786Z,4156.00
2018-07-23T13:00:30.728Z,3196.00
2018-07-23T13:01:30.752Z,4228.00
2018-07-23T13:03:23.715Z,4016.00
2018-07-23T13:04:23.717Z,3956.00
2018-07-23T13:06:16.661Z,3776.00
2018-07-23T13:07:16.687Z,2940.00
2018-07-23T13:09:09.650Z,4012.00
2018-07-23T13:10:09.652Z,4200.00
2018-07-23T13:12:02.611Z,4180.00
2018-07-23T13:13:02.617Z,4284.00
2018-07-23T13:14:55.627Z,2996.00
2018-07-23T13:15:55.583Z,4008.00
2018-07-23T13:17:48.542Z,4168.00
2018-07-23T13:18:48.547Z,4044.00
2018-07-23T13:20:41.489Z,3896.00
2018-07-23T13:21:41.515Z,3912.00
2018-07-23T13:23:34.478Z,4028.00
2018-07-23T13:24:34.484Z,4144.00
2018-07-23T13:26:27.430Z,4536.00
2018-07-23T13:27:27.456Z,4712.00
2018-07-23T13:29:20.421Z,3456.00
2018-07-23T13:30:20.424Z,3376.00
2018-07-23T13:32:13.429Z,4384.00
2018-07-23T13:33:13.391Z,4308.00
2018-07-23T13:35:06.331Z,4324.00
2018-07-23T13:36:06.352Z,4316.00
2018-07-23T13:37:59.354Z,4232.00
2018-07-23T13:38:59.321Z,3328.00
2018-07-23T13:40:52.264Z,3340.00
2018-07-23T13:41:52.287Z,3356.00
2018-07-23T13:43:45.259Z,3292.00
2018-07-23T13:44:45.264Z,3224.00
2018-07-23T13:46:38.204Z,3104.00
2018-07-23T13:47:38.227Z,3116.00
2018-07-23T13:49:31.188Z,3204.00
2018-07-23T13:50:31.190Z,3116.00
2018-07-23T13:52:24.156Z,3052.00
2018-07-23T13:53:24.161Z,3240.00
2018-07-23T13:55:17.107Z,3648.00
2018-07-23T13:56:17.129Z,2708.00
2018-07-23T13:58:10.089Z,2796.00
2018-07-23T13:59:10.092Z,3020.00
2018-07-23T14:01:03.037Z,3132.00
2018-07-23T14:02:03.060Z,3008.00
2018-07-23T14:03:56.025Z,2208.00
2018-07-23T14:04:56.027Z,2736.00
2018-07-23T14:06:48.969Z,3288.00
2018-07-23T14:07:48.991Z,3372.00
2018-07-23T14:09:41.952Z,2616.00
2018-07-23T14:10:41.954Z,2740.00
2018-07-23T14:12:34.923Z,3744.00
2018-07-23T14:13:34.923Z,2700.00
2018-07-23T14:15:27.871Z,2648.00
2018-07-23T14:16:27.892Z,2964.00
2018-07-23T14:18:20.853Z,3764.00
2018-07-23T14:19:20.854Z,3016.00
2018-07-23T14:21:13.795Z,2868.00
2018-07-23T14:22:13.837Z,2816.00
2018-07-23T14:24:06.781Z,3956.00
2018-07-23T14:25:06.781Z,3984.00
2018-07-23T14:26:59.724Z,3832.00
2018-07-23T14:27:59.744Z,3700.00
2018-07-23T14:29:52.705Z,2564.00
2018-07-23T14:30:52.706Z,3388.00
2018-07-23T14:32:45.669Z,2468.00
2018-07-23T14:33:45.672Z,2640.00
2018-07-23T14:35:38.614Z,3428.00
2018-07-23T14:36:38.634Z,3568.00
2018-07-23T14:38:31.602Z,2792.00
2018-07-23T14:39:31.600Z,2772.00
2018-07-23T14:41:24.547Z,2716.00
2018-07-23T14:42:24.563Z,2744.00
2018-07-23T14:44:17.521Z,3060.00
2018-07-23T14:45:17.526Z,3676.00
2018-07-23T14:47:10.470Z,2644.00
2018-07-23T14:48:10.489Z,3052.00
2018-07-23T14:50:03.449Z,3108.00
2018-07-23T14:51:03.453Z,2632.00
2018-07-23T14:52:56.417Z,2860.00
2018-07-23T14:53:56.418Z,3248.00
2018-07-23T14:55:49.353Z,3164.00
2018-07-23T14:56:49.382Z,3048.00
2018-07-23T14:58:42.344Z,3364.00
2018-07-23T14:59:42.344Z,2936.00
2018-07-23T15:01:35.293Z,2780.00
2018-07-23T15:02:35.316Z,2476.00
2018-07-23T15:04:28.276Z,2340.00
2018-07-23T15:05:28.279Z,2320.00
2018-07-23T15:07:21.224Z,2292.00
2018-07-23T15:08:21.242Z,2272.00
2018-07-23T15:10:14.205Z,2288.00
2018-07-23T15:11:14.208Z,2240.00
2018-07-23T15:13:07.185Z,2236.00
2018-07-23T15:14:07.170Z,2272.00
2018-07-23T15:16:00.112Z,2324.00
2018-07-23T15:17:00.132Z,2764.00
2018-07-23T15:18:53.091Z,2684.00
2018-07-23T15:19:53.097Z,2104.00
2018-07-23T15:21:46.041Z,2120.00
2018-07-23T15:22:46.060Z,2684.00
2018-07-23T15:24:39.019Z,2708.00
2018-07-23T15:25:39.025Z,2752.00
2018-07-23T15:27:32.042Z,2816.00
2018-07-23T15:28:31.983Z,2840.00
2018-07-23T15:30:24.942Z,2256.00
2018-07-23T15:31:24.942Z,2032.00
2018-07-23T15:33:17.916Z,1976.00
2018-07-23T15:34:17.909Z,1828.00
2018-07-23T15:36:10.850Z,1720.00
2018-07-23T15:37:10.870Z,1692.00
2018-07-23T15:39:03.832Z,1676.00
2018-07-23T15:40:03.832Z,1672.00
2018-07-23T15:41:56.776Z,2292.00
2018-07-23T15:42:56.797Z,2324.00
2018-07-23T15:44:50.048Z,1712.00
2018-07-23T15:45:50.023Z,1688.00
2018-07-23T15:47:42.695Z,2056.00
2018-07-23T15:48:42.716Z,2296.00
2018-07-23T15:50:35.679Z,2400.00
2018-07-23T15:51:35.683Z,2428.00
2018-07-23T15:53:28.641Z,2520.00
2018-07-23T15:54:28.645Z,2544.00
2018-07-23T15:56:21.583Z,2504.00
2018-07-23T15:57:21.606Z,2048.00
2018-07-23T15:59:14.567Z,1868.00
2018-07-23T16:00:14.563Z,2180.00
2018-07-23T16:02:07.510Z,1740.00
2018-07-23T16:03:07.526Z,1712.00
2018-07-23T16:05:00.488Z,1816.00
2018-07-23T16:06:00.491Z,1592.00
2018-07-23T16:07:53.429Z,1520.00
2018-07-23T16:08:53.451Z,1484.00
2018-07-23T16:10:46.451Z,1828.00
2018-07-23T16:11:46.415Z,1432.00
2018-07-23T16:13:39.389Z,1744.00
2018-07-23T16:14:39.382Z,1448.00
2018-07-23T16:16:32.324Z,1700.00
2018-07-23T16:17:32.349Z,1780.00
2018-07-23T16:19:25.307Z,1744.00
2018-07-23T16:20:25.305Z,1728.00
2018-07-23T16:22:18.244Z,1776.00
2018-07-23T16:23:18.265Z,1812.00
2018-07-23T16:25:11.232Z,1800.00
2018-07-23T16:26:11.272Z,1800.00
2018-07-23T16:28:04.174Z,1732.00
2018-07-23T16:29:04.192Z,1692.00
2018-07-23T16:30:57.150Z,1644.00
2018-07-23T16:31:57.160Z,1592.00
2018-07-23T16:33:50.113Z,1564.00
2018-07-23T16:34:50.112Z,1568.00
2018-07-23T16:36:43.072Z,1548.00
2018-07-23T16:37:43.074Z,1524.00
2018-07-23T16:39:36.032Z,1504.00
2018-07-23T16:40:36.035Z,1492.00
2018-07-23T16:42:28.980Z,1476.00
2018-07-23T16:43:28.999Z,1460.00
2018-07-23T16:45:21.975Z,1436.00
2018-07-23T16:46:21.985Z,1428.00
2018-07-23T16:48:14.935Z,1392.00
2018-07-23T16:49:14.937Z,1384.00
2018-07-23T16:51:07.896Z,1360.00
2018-07-23T16:52:07.897Z,1340.00
2018-07-23T16:54:00.838Z,1292.00
2018-07-23T16:55:00.858Z,1312.00
2018-07-23T16:56:53.817Z,1308.00
2018-07-23T16:57:53.820Z,1288.00
2018-07-23T16:59:46.775Z,1280.00
2018-07-23T17:00:46.777Z,1272.00
2018-07-23T17:02:39.719Z,1252.00
2018-07-23T17:03:39.737Z,1244.00
2018-07-23T17:05:32.700Z,1228.00
2018-07-23T17:06:32.696Z,1212.00
2018-07-23T17:08:25.635Z,1192.00
2018-07-23T17:09:25.676Z,1192.00
2018-07-23T17:11:18.613Z,1180.00
2018-07-23T17:12:18.612Z,1172.00
2018-07-23T17:14:11.563Z,1160.00
2018-07-23T17:15:11.579Z,1148.00
2018-07-23T17:17:04.539Z,1040.00
2018-07-23T17:18:04.599Z,1100.00
2018-07-23T17:19:57.502Z,1020.00
2018-07-23T17:20:57.497Z,1020.00
2018-07-23T17:22:50.435Z,1092.00
2018-07-23T17:23:50.456Z,1080.00
2018-07-23T17:25:43.415Z,1080.00
2018-07-23T17:26:43.414Z,1068.00
2018-07-23T17:28:36.354Z,1064.00
2018-07-23T17:29:36.372Z,1064.00
2018-07-23T17:31:29.332Z,1052.00
2018-07-23T17:32:29.333Z,1032.00
2018-07-23T17:34:22.277Z,1016.00
2018-07-23T17:35:22.302Z,1012.00
2018-07-23T17:37:15.256Z,996.00
2018-07-23T17:38:15.256Z,972.00
2018-07-23T17:40:08.215Z,944.00
2018-07-23T17:41:08.217Z,944.00
2018-07-23T17:43:01.156Z,944.00
2018-07-23T17:44:01.175Z,940.00
2018-07-23T17:45:54.134Z,960.00
2018-07-23T17:46:54.136Z,944.00
2018-07-23T17:48:47.078Z,960.00
2018-07-23T17:49:47.093Z,960.00
2018-07-23T17:51:40.052Z,980.00
2018-07-23T17:52:40.052Z,976.00
2018-07-23T17:54:32.997Z,956.00
2018-07-23T17:55:33.016Z,960.00
2018-07-23T17:57:25.969Z,956.00
2018-07-23T17:58:25.972Z,956.00
2018-07-23T18:00:18.931Z,932.00
2018-07-23T18:01:18.933Z,924.00
2018-07-23T18:03:11.872Z,920.00
2018-07-23T18:04:11.895Z,916.00
2018-07-23T18:06:04.848Z,904.00
2018-07-23T18:07:04.848Z,888.00
2018-07-23T18:08:57.788Z,856.00
2018-07-23T18:09:57.822Z,836.00
2018-07-23T18:11:50.787Z,812.00
2018-07-23T18:12:50.767Z,804.00
2018-07-23T18:14:43.705Z,780.00